Time;durP1;ratioP1;P1;durP2;ratioP2;P2;SDS_P1;SDS_P2;PMS_P1;PMS_P2;Temp;Humidity;BMP_temperature;BMP_pressure;BME280_temperature;BME280_humidity;BME280_pressure;Samples;Min_cycle;Max_cycle;Signal;HPM_P1;HPM_P2
2023/01/16 00:01:25;;;;;;;66.70;7.72;;;6.30;99.90;;;;;;6222501;23;20478;-85
2023/01/16 00:03:51;;;;;;;64.57;6.40;;;6.10;99.90;;;;;;6195920;23;20171;-85
2023/01/16 00:06:17;;;;;;;67.27;6.73;;;6.10;99.90;;;;;;6196251;23;20614;-87
2023/01/16 00:08:43;;;;;;;67.60;7.90;;;6.10;99.90;;;;;;6222169;23;20222;-87
2023/01/16 00:11:10;;;;;;;66.00;7.47;;;6.10;99.90;;;;;;6196878;23;20367;-88
2023/01/16 00:13:38;;;;;;;67.25;7.95;;;6.10;99.90;;;;;;6196095;23;20145;-86
2023/01/16 00:16:05;;;;;;;65.07;7.10;;;6.00;99.90;;;;;;6195845;23;20168;-87
2023/01/16 00:18:30;;;;;;;65.97;9.15;;;5.90;99.90;;;;;;6197004;23;20149;-86
2023/01/16 00:20:56;;;;;;;71.50;14.27;;;6.00;99.90;;;;;;6195434;23;20155;-87
2023/01/16 00:23:22;;;;;;;68.27;11.20;;;6.00;99.90;;;;;;6195647;23;20167;-86
2023/01/16 00:25:47;;;;;;;66.37;7.63;;;6.10;99.90;;;;;;6195903;23;20176;-87
2023/01/16 00:28:14;;;;;;;65.60;7.70;;;6.10;99.90;;;;;;6221785;23;20624;-87
2023/01/16 00:30:42;;;;;;;66.07;8.25;;;6.10;99.90;;;;;;6222407;23;20144;-86
2023/01/16 00:33:08;;;;;;;70.28;10.13;;;6.10;99.90;;;;;;6222238;23;20148;-86
2023/01/16 00:35:34;;;;;;;67.00;8.40;;;6.10;99.90;;;;;;6195581;23;20199;-86
2023/01/16 00:38:00;;;;;;;65.63;6.30;;;6.10;99.90;;;;;;6222262;23;20191;-86
2023/01/16 00:40:26;;;;;;;66.03;6.65;;;6.20;99.90;;;;;;6222767;23;20140;-86
2023/01/16 00:42:52;;;;;;;66.10;6.30;;;6.20;99.90;;;;;;6222107;23;20220;-86
2023/01/16 00:45:17;;;;;;;65.20;6.67;;;6.30;99.90;;;;;;6195824;23;20208;-87
2023/01/16 00:47:43;;;;;;;66.87;7.40;;;6.30;99.90;;;;;;6222865;23;20287;-88
2023/01/16 00:50:10;;;;;;;67.63;5.40;;;6.30;99.90;;;;;;6225211;23;20429;-86
2023/01/16 00:52:35;;;;;;;66.93;7.25;;;6.30;99.90;;;;;;6224537;23;20141;-86
2023/01/16 00:55:02;;;;;;;68.50;7.10;;;6.40;99.90;;;;;;6223952;23;20216;-88
2023/01/16 00:57:27;;;;;;;65.25;7.40;;;6.40;99.90;;;;;;6223417;23;20165;-87
2023/01/16 00:59:53;;;;;;;64.97;6.30;;;6.40;99.90;;;;;;6197243;23;20152;-86
2023/01/16 01:02:19;;;;;;;68.30;6.50;;;6.40;99.90;;;;;;6197094;23;20152;-88
2023/01/16 01:04:44;;;;;;;66.00;8.30;;;6.50;99.90;;;;;;6196220;23;20144;-86
2023/01/16 01:07:10;;;;;;;65.30;7.10;;;6.30;99.90;;;;;;6195992;23;20181;-87
2023/01/16 01:09:36;;;;;;;65.67;6.20;;;6.20;99.90;;;;;;6221190;23;20141;-86
2023/01/16 01:12:01;;;;;;;65.07;6.27;;;6.20;99.90;;;;;;6195914;23;20141;-86
2023/01/16 01:14:27;;;;;;;64.97;7.20;;;6.10;99.90;;;;;;6222356;23;20232;-86
2023/01/16 01:16:53;;;;;;;69.18;6.88;;;6.00;99.90;;;;;;6221654;23;20195;-87
2023/01/16 01:19:19;;;;;;;65.77;7.60;;;6.00;99.90;;;;;;6196030;23;20156;-86
2023/01/16 01:21:47;;;;;;;68.27;6.60;;;5.90;99.90;;;;;;6196008;23;20167;-87
2023/01/16 01:24:13;;;;;;;65.05;7.35;;;6.00;99.90;;;;;;6196197;23;20156;-86
2023/01/16 01:26:39;;;;;;;64.97;7.23;;;6.00;99.90;;;;;;6222322;23;20184;-86
2023/01/16 01:29:05;;;;;;;67.67;6.93;;;5.90;99.90;;;;;;6222318;23;20683;-87
2023/01/16 01:31:30;;;;;;;65.67;7.73;;;5.90;99.90;;;;;;6195964;23;20367;-87
2023/01/16 01:33:56;;;;;;;66.20;6.53;;;5.80;99.90;;;;;;6195748;23;20149;-86
2023/01/16 01:36:22;;;;;;;65.53;7.10;;;5.80;99.90;;;;;;6223258;23;20251;-87
2023/01/16 01:38:50;;;;;;;65.77;8.57;;;5.90;99.90;;;;;;6223316;23;20167;-86
2023/01/16 01:41:16;;;;;;;65.22;7.63;;;5.90;99.90;;;;;;6222602;23;20164;-86
2023/01/16 01:43:51;;;;;;;65.35;7.90;;;5.90;99.90;;;;;;6222828;23;20148;-86
2023/01/16 01:46:22;;;;;;;65.90;8.98;;;5.90;99.90;;;;;;6195312;23;20176;-87
2023/01/16 01:48:54;;;;;;;66.35;9.07;;;6.00;99.90;;;;;;6222512;23;20156;-86
2023/01/16 01:51:36;;;;;;;65.97;8.10;;;6.00;99.90;;;;;;6222318;23;20122;-86
2023/01/16 01:54:09;;;;;;;66.38;8.45;;;6.00;99.90;;;;;;6196181;23;20510;-86
2023/01/16 01:56:56;;;;;;;65.53;8.90;;;6.00;99.90;;;;;;6194895;23;20176;-87
2023/01/16 01:59:29;;;;;;;69.30;9.30;;;6.00;99.90;;;;;;6222771;23;20148;-87
2023/01/16 02:01:56;;;;;;;71.07;9.57;;;6.00;99.90;;;;;;6222212;23;20125;-86
2023/01/16 02:04:28;;;;;;;66.72;7.72;;;6.00;99.90;;;;;;6195278;23;20231;-87
2023/01/16 02:06:57;;;;;;;65.75;8.40;;;5.90;99.90;;;;;;6196127;23;20176;-86
2023/01/16 02:09:25;;;;;;;67.10;6.75;;;5.90;99.90;;;;;;6195865;23;20155;-87
2023/01/16 02:12:05;;;;;;;65.45;8.32;;;5.90;99.90;;;;;;6221706;23;20140;-86
2023/01/16 02:14:35;;;;;;;65.80;9.82;;;5.80;99.90;;;;;;6196031;23;20136;-86
2023/01/16 02:19:56;;;;;;;65.68;9.68;;;5.80;99.90;;;;;;6224129;23;20136;-87
2023/01/16 02:22:44;;;;;;;65.55;7.80;;;5.80;99.90;;;;;;6224934;23;20133;-86
2023/01/16 02:25:19;;;;;;;64.97;7.82;;;5.80;99.90;;;;;;6223494;23;20140;-87
2023/01/16 02:28:09;;;;;;;64.53;5.95;;;5.80;99.90;;;;;;6196694;23;20184;-86
2023/01/16 02:30:55;;;;;;;65.00;7.30;;;5.80;99.90;;;;;;6195492;23;20161;-86
2023/01/16 02:33:42;;;;;;;65.63;7.78;;;5.80;99.90;;;;;;6222858;23;20128;-86
2023/01/16 02:36:29;;;;;;;65.53;8.18;;;5.70;99.90;;;;;;6196047;23;20475;-86
2023/01/16 02:39:05;;;;;;;65.95;9.55;;;5.70;99.90;;;;;;6222749;23;20135;-87
2023/01/16 02:42:07;;;;;;;65.20;7.95;;;5.80;99.90;;;;;;6222171;23;20129;-87
2023/01/16 02:45:03;;;;;;;66.10;8.30;;;5.80;99.90;;;;;;6221627;23;20133;-86
2023/01/16 02:48:01;;;;;;;64.50;5.95;;;5.80;99.90;;;;;;6170622;23;20180;-86
2023/01/16 02:50:51;;;;;;;65.68;9.52;;;5.90;99.90;;;;;;6160297;23;20169;-86
2023/01/16 02:53:21;;;;;;;69.28;9.57;;;5.70;99.90;;;;;;6194675;23;20136;-87
2023/01/16 02:56:08;;;;;;;66.80;11.88;;;5.70;99.90;;;;;;6220919;23;20137;-86
2023/01/16 02:58:37;;;;;;;66.30;10.15;;;5.70;99.90;;;;;;6221083;23;20186;-86
2023/01/16 03:01:02;;;;;;;67.05;12.45;;;5.70;99.90;;;;;;6194542;23;20158;-86
2023/01/16 03:03:34;;;;;;;68.57;12.47;;;5.60;99.90;;;;;;6220717;23;20164;-87
2023/01/16 03:06:21;;;;;;;67.20;14.13;;;5.70;99.90;;;;;;6194683;23;20223;-86
2023/01/16 03:08:59;;;;;;;69.55;11.57;;;5.70;99.90;;;;;;6194357;23;20214;-86
2023/01/16 03:11:29;;;;;;;68.93;10.10;;;5.60;99.90;;;;;;6194348;23;20136;-86
2023/01/16 03:14:30;;;;;;;65.07;7.93;;;5.60;99.90;;;;;;6194057;23;20144;-86
2023/01/16 03:17:33;;;;;;;67.05;9.73;;;5.50;99.90;;;;;;6173086;23;20168;-86
2023/01/16 03:20:33;;;;;;;65.80;8.57;;;5.40;99.90;;;;;;6194261;23;20603;-86
2023/01/16 03:23:13;;;;;;;65.90;9.05;;;5.30;99.90;;;;;;6221161;23;20203;-86
2023/01/16 03:25:48;;;;;;;66.05;9.05;;;5.30;99.90;;;;;;6195393;23;20140;-86
2023/01/16 03:28:52;;;;;;;66.28;10.57;;;5.20;99.90;;;;;;6194662;23;20160;-86
2023/01/16 03:31:27;;;;;;;70.18;9.40;;;5.20;99.90;;;;;;6169950;23;20148;-86
2023/01/16 03:34:02;;;;;;;70.75;9.90;;;5.30;99.90;;;;;;6220261;23;20129;-87
2023/01/16 03:36:53;;;;;;;66.30;10.45;;;5.20;99.90;;;;;;6194455;23;20167;-86
2023/01/16 03:39:25;;;;;;;67.20;12.52;;;5.10;99.90;;;;;;6193761;23;20164;-87
2023/01/16 03:41:54;;;;;;;69.15;17.63;;;5.10;99.90;;;;;;6220500;23;20147;-86
2023/01/16 03:44:29;;;;;;;72.57;25.85;;;5.10;99.90;;;;;;6220294;23;20169;-86
2023/01/16 03:46:58;;;;;;;74.28;30.65;;;5.10;99.90;;;;;;6221435;23;20609;-86
2023/01/16 03:49:33;;;;;;;76.38;37.63;;;5.10;99.90;;;;;;6196785;23;20224;-88
2023/01/16 03:52:02;;;;;;;73.43;33.65;;;5.20;99.90;;;;;;6196678;23;20131;-87
2023/01/16 03:54:40;;;;;;;78.32;32.50;;;5.30;99.90;;;;;;6196093;23;20140;-87
2023/01/16 03:57:24;;;;;;;75.25;31.63;;;5.30;99.90;;;;;;6195451;23;20172;-86
2023/01/16 03:59:52;;;;;;;72.47;30.73;;;5.30;99.90;;;;;;6221496;23;20133;-87
2023/01/16 04:02:48;;;;;;;74.13;32.28;;;5.20;99.90;;;;;;6220854;23;20155;-86
2023/01/16 04:05:41;;;;;;;73.88;30.70;;;5.30;99.90;;;;;;6220393;23;20680;-86
2023/01/16 04:08:13;;;;;;;73.80;27.65;;;5.30;99.90;;;;;;6193884;23;20456;-86
2023/01/16 04:10:43;;;;;;;74.93;30.15;;;5.30;99.90;;;;;;6220291;23;20208;-87
2023/01/16 04:13:12;;;;;;;74.32;30.92;;;5.30;99.90;;;;;;6219769;23;20179;-86
2023/01/16 04:15:41;;;;;;;74.38;33.60;;;5.30;99.90;;;;;;6194474;23;20196;-86
2023/01/16 04:18:07;;;;;;;72.47;30.45;;;5.40;99.90;;;;;;6192692;23;20239;-86
2023/01/16 04:20:35;;;;;;;78.70;31.83;;;5.40;99.90;;;;;;6219145;23;20165;-87
2023/01/16 04:23:01;;;;;;;75.43;32.25;;;5.30;99.90;;;;;;6193067;23;20232;-86
2023/01/16 04:25:27;;;;;;;75.57;25.77;;;5.40;99.90;;;;;;6193326;23;20582;-86
2023/01/16 04:28:09;;;;;;;72.27;27.80;;;5.40;99.90;;;;;;6213270;22;20188;-87
2023/01/16 04:30:49;;;;;;;73.30;31.30;;;5.40;99.90;;;;;;6215619;23;20152;-88
2023/01/16 04:34:10;;;;;;;73.78;29.73;;;5.40;99.90;;;;;;6216223;23;20136;-88
2023/01/16 04:40:22;;;;;;;80.80;32.00;;;5.50;99.90;;;;;;5984857;23;20210;-88
2023/01/16 04:43:11;;;;;;;74.05;27.88;;;5.40;99.90;;;;;;5898834;24;20196;-88
2023/01/16 04:46:05;;;;;;;75.57;24.13;;;5.50;99.90;;;;;;5899664;24;20172;-88
2023/01/16 04:51:42;;;;;;;72.22;23.13;;;5.50;99.90;;;;;;6067895;23;20740;-88
2023/01/16 04:54:59;;;;;;;71.97;24.30;;;5.60;99.90;;;;;;6068097;23;20175;-88
2023/01/16 05:00:58;;;;;;;71.25;23.65;;;5.70;99.90;;;;;;6030166;23;20200;-88
2023/01/16 05:03:51;;;;;;;72.22;24.83;;;5.70;99.90;;;;;;6158496;23;20639;-88
2023/01/16 05:10:03;;;;;;;71.97;24.35;;;5.70;99.90;;;;;;6183235;23;20631;-88
2023/01/16 05:13:27;;;;;;;71.20;25.08;;;5.70;99.90;;;;;;6187418;23;20128;-87
2023/01/16 05:16:50;;;;;;;70.85;22.13;;;5.70;99.90;;;;;;6072332;23;20506;-88
2023/01/16 05:23:10;;;;;;;68.55;14.30;;;5.80;99.90;;;;;;6052005;23;20557;-88
2023/01/16 05:26:36;;;;;;;69.15;16.20;;;5.80;99.90;;;;;;6087460;23;20154;-88
2023/01/16 05:32:36;;;;;;;;;;;;;;;;;;;;;
2023/01/16 05:35:37;;;;;;;67.72;14.02;;;5.80;99.90;;;;;;6187584;23;20219;-88
2023/01/16 05:38:51;;;;;;;65.15;7.53;;;5.80;99.90;;;;;;6187463;23;20191;-88
2023/01/16 05:53:10;;;;;;;;;;;;;;;;;;;;;
2023/01/16 05:55:57;;;;;;;66.07;7.40;;;5.80;99.90;;;;;;6055149;23;20680;-88
2023/01/16 05:58:57;;;;;;;65.80;9.40;;;5.80;99.90;;;;;;6088855;23;20149;-88
2023/01/16 06:02:07;;;;;;;65.68;8.95;;;5.90;99.90;;;;;;6149537;23;20168;-88
2023/01/16 06:04:56;;;;;;;65.80;6.80;;;5.90;99.90;;;;;;6160532;23;20152;-88
2023/01/16 06:16:25;;;;;;;67.20;11.18;;;5.80;99.90;;;;;;6216708;23;20148;-88
2023/01/16 06:19:47;;;;;;;70.05;15.85;;;5.90;99.90;;;;;;6216938;23;20164;-88
2023/01/16 06:23:02;;;;;;;65.93;9.32;;;5.90;99.90;;;;;;6190096;23;20172;-87
2023/01/16 06:26:41;;;;;;;66.43;7.30;;;5.90;99.90;;;;;;6082569;23;20151;-88
2023/01/16 06:29:39;;;;;;;65.63;10.10;;;5.90;99.90;;;;;;6073841;23;20233;-88
2023/01/16 06:32:48;;;;;;;66.30;8.45;;;5.90;99.90;;;;;;6070225;23;20148;-88
2023/01/16 06:38:43;;;;;;;68.85;10.10;;;5.90;99.90;;;;;;6125141;23;20158;-87
2023/01/16 06:45:31;;;;;;;66.60;9.75;;;5.90;99.90;;;;;;6081314;23;20255;-87
2023/01/16 06:51:28;;;;;;;66.80;10.50;;;5.90;99.90;;;;;;5992566;23;20146;-87
2023/01/16 06:54:22;;;;;;;67.93;13.60;;;5.90;99.90;;;;;;6067002;23;20161;-87
2023/01/16 06:57:04;;;;;;;68.60;13.38;;;5.80;99.90;;;;;;6066995;23;20317;-87
2023/01/16 07:07:08;;;;;;;;;;;;;;;;;;;;;
2023/01/16 07:13:27;;;;;;;;;;;;;;;;;;;;;
2023/01/16 07:23:36;;;;;;;;;;;;;;;;;;;;;
2023/01/16 07:27:04;;;;;;;71.18;11.55;;;6.00;99.90;;;;;;6095187;23;20550;-88
2023/01/16 07:37:18;;;;;;;74.60;25.80;;;6.00;99.90;;;;;;6074525;23;20177;-88
2023/01/16 07:44:39;;;;;;;;;;;;;;;;;;;;;
2023/01/16 07:48:00;;;;;;;77.55;33.80;;;6.00;99.90;;;;;;6215171;23;20256;-89
2023/01/16 07:51:18;;;;;;;72.22;28.83;;;6.00;99.90;;;;;;6133860;23;20155;-88
2023/01/16 07:54:41;;;;;;;;;;;;;;;;;;;;;
2023/01/16 07:57:26;;;;;;;71.95;25.55;;;5.80;99.90;;;;;;6093195;23;20245;-89
2023/01/16 08:00:29;;;;;;;72.15;26.60;;;5.80;99.90;;;;;;6068045;23;20155;-89
2023/01/16 08:03:40;;;;;;;;;;;;;;;;;;;;;
2023/01/16 08:20:07;;;;;;;67.30;17.40;;;5.60;99.90;;;;;;6010514;23;20149;-88
2023/01/16 08:23:18;;;;;;;74.45;16.50;;;5.60;99.90;;;;;;6011717;23;20293;-88
2023/01/16 08:27:06;;;;;;;69.68;10.32;;;5.60;99.90;;;;;;6019623;23;20583;-88
2023/01/16 08:30:41;;;;;;;73.95;14.15;;;5.60;99.90;;;;;;6025439;23;20220;-88
2023/01/16 08:54:03;;;;;;;70.97;11.57;;;5.60;99.90;;;;;;6068857;23;20205;-88
2023/01/16 08:57:09;;;;;;;71.20;14.90;;;5.60;99.90;;;;;;6044877;23;20565;-88
2023/01/16 09:00:09;;;;;;;66.88;10.27;;;5.60;99.90;;;;;;6057110;23;20182;-88
2023/01/16 09:03:16;;;;;;;70.05;23.75;;;5.50;99.90;;;;;;6163000;23;20192;-88
2023/01/16 09:06:24;;;;;;;;;;;;;;;;;;;;;
2023/01/16 09:16:34;;;;;;;81.63;32.00;;;5.60;99.90;;;;;;6099315;23;20226;-88
2023/01/16 09:18:59;;;;;;;66.53;11.18;;;5.50;99.90;;;;;;6171553;23;20149;-88
2023/01/16 09:22:21;;;;;;;68.17;16.80;;;5.40;99.90;;;;;;6188614;23;20144;-88
2023/01/16 09:28:33;;;;;;;72.68;19.90;;;5.50;99.90;;;;;;6043755;23;20267;-88
2023/01/16 09:32:07;;;;;;;67.25;11.52;;;5.50;99.90;;;;;;6165318;23;20149;-88
2023/01/16 09:35:36;;;;;;;66.55;9.63;;;5.50;99.90;;;;;;6131204;23;20156;-88
2023/01/16 09:38:02;;;;;;;68.78;9.70;;;5.50;99.90;;;;;;6133859;23;20145;-88
2023/01/16 09:40:34;;;;;;;66.07;10.13;;;5.50;99.90;;;;;;6188126;23;20129;-88
2023/01/16 09:43:41;;;;;;;68.57;10.45;;;5.50;99.90;;;;;;6161496;23;20620;-88
2023/01/16 09:47:00;;;;;;;67.53;16.63;;;5.50;99.90;;;;;;6104659;23;20248;-88
2023/01/16 10:02:54;;;;;;;;;;;;;;;;;;;;;
2023/01/16 10:09:30;;;;;;;69.78;20.83;;;5.70;99.90;;;;;;6037758;23;20188;-88
2023/01/16 10:12:54;;;;;;;88.28;60.83;;;5.70;99.90;;;;;;6038428;23;20227;-88
2023/01/16 10:28:35;;;;;;;86.38;53.72;;;5.70;99.90;;;;;;6215737;22;20642;-86
2023/01/16 10:31:23;;;;;;;70.97;24.70;;;5.70;99.90;;;;;;6191204;23;20171;-86
2023/01/16 10:34:14;;;;;;;70.85;24.63;;;5.70;99.90;;;;;;6218162;23;20553;-86
2023/01/16 10:36:45;;;;;;;71.00;26.73;;;5.70;99.90;;;;;;6190520;23;20176;-86
2023/01/16 10:39:12;;;;;;;70.85;25.35;;;5.80;99.90;;;;;;6190453;23;20187;-86
2023/01/16 10:50:25;;;;;;;68.53;16.85;;;5.90;99.90;;;;;;6217614;23;20553;-86
2023/01/16 10:52:51;;;;;;;73.30;31.92;;;5.90;99.90;;;;;;6217188;23;20133;-87
2023/01/16 10:55:17;;;;;;;70.97;24.30;;;5.90;99.90;;;;;;6217308;23;20144;-87
2023/01/16 10:57:58;;;;;;;71.43;24.20;;;5.90;99.90;;;;;;6217419;23;20164;-86
2023/01/16 11:00:32;;;;;;;68.07;13.80;;;6.00;99.90;;;;;;6217609;23;20129;-86
2023/01/16 11:03:01;;;;;;;67.32;10.73;;;6.10;99.90;;;;;;6217707;23;20562;-86
2023/01/16 11:05:34;;;;;;;66.60;13.18;;;6.20;99.90;;;;;;6190903;23;20149;-86
2023/01/16 11:08:15;;;;;;;66.35;11.10;;;6.10;99.90;;;;;;6191242;23;20567;-86
2023/01/16 11:10:45;;;;;;;71.45;20.65;;;6.20;99.90;;;;;;6223879;23;20137;-87
2023/01/16 11:19:20;;;;;;;68.22;16.10;;;6.30;99.90;;;;;;6223932;23;20220;-86
2023/01/16 11:22:27;;;;;;;67.07;9.40;;;6.40;99.90;;;;;;6219744;23;20164;-86
2023/01/16 11:25:00;;;;;;;68.50;10.85;;;6.40;99.90;;;;;;6218189;23;20133;-86
2023/01/16 11:27:30;;;;;;;74.82;25.15;;;6.40;99.90;;;;;;6191019;23;20191;-86
2023/01/16 11:29:57;;;;;;;66.07;7.50;;;6.30;99.90;;;;;;6192054;23;20144;-87
2023/01/16 11:32:27;;;;;;;84.72;44.90;;;6.40;99.90;;;;;;6217889;23;20140;-86
2023/01/16 11:34:57;;;;;;;65.28;6.35;;;6.40;99.90;;;;;;6190979;23;20141;-86
2023/01/16 11:37:26;;;;;;;65.07;7.93;;;6.40;99.90;;;;;;6217786;23;20637;-86
2023/01/16 11:39:54;;;;;;;66.40;11.32;;;6.40;99.90;;;;;;6217826;23;20223;-86
2023/01/16 11:48:22;;;;;;;66.22;10.98;;;6.30;99.90;;;;;;6217889;23;20170;-86
2023/01/16 11:50:55;;;;;;;67.55;14.13;;;6.30;99.90;;;;;;6219221;23;20505;-86
2023/01/16 11:53:21;;;;;;;78.35;26.83;;;6.20;99.90;;;;;;6218575;23;20121;-86
2023/01/16 11:56:10;;;;;;;69.60;20.65;;;6.10;99.90;;;;;;6191897;23;20155;-86
2023/01/16 11:59:11;;;;;;;65.55;9.55;;;6.10;99.90;;;;;;6192962;23;20632;-86
2023/01/16 12:04:29;;;;;;;69.32;20.92;;;6.00;99.90;;;;;;6217914;23;20208;-86
2023/01/16 12:07:23;;;;;;;71.28;24.38;;;5.90;99.90;;;;;;6218147;23;20238;-86
2023/01/16 12:10:13;;;;;;;75.03;34.20;;;5.90;99.90;;;;;;6191653;23;20145;-86
2023/01/16 12:15:54;;;;;;;71.53;25.02;;;5.90;99.90;;;;;;6217769;23;20193;-86
2023/01/16 12:18:53;;;;;;;70.93;25.88;;;5.90;99.90;;;;;;6191133;23;20230;-87
2023/01/16 12:21:25;;;;;;;70.63;21.20;;;5.90;99.90;;;;;;6218159;23;20133;-86
2023/01/16 12:24:07;;;;;;;70.00;23.85;;;5.80;99.90;;;;;;6217341;23;20198;-87
2023/01/16 12:26:57;;;;;;;67.68;16.25;;;5.90;99.90;;;;;;6190655;23;20195;-86
2023/01/16 12:29:28;;;;;;;67.95;17.77;;;5.90;99.90;;;;;;6217040;23;20129;-87
2023/01/16 12:32:14;;;;;;;68.57;17.17;;;6.00;99.90;;;;;;6216816;23;20187;-87
2023/01/16 12:34:52;;;;;;;69.30;12.77;;;6.10;99.90;;;;;;6190454;23;20136;-86
2023/01/16 12:37:32;;;;;;;79.45;35.42;;;6.10;99.90;;;;;;6191153;23;20168;-87
2023/01/16 12:40:22;;;;;;;65.60;10.52;;;6.10;99.90;;;;;;6221336;23;20156;-86
2023/01/16 12:43:18;;;;;;;65.85;11.27;;;6.10;99.90;;;;;;6220288;23;20494;-87
2023/01/16 12:45:55;;;;;;;68.07;14.30;;;6.20;99.90;;;;;;6219910;23;20248;-87
2023/01/16 12:48:39;;;;;;;67.57;12.88;;;6.20;99.90;;;;;;6192561;23;20195;-87
2023/01/16 12:51:22;;;;;;;76.70;29.52;;;6.20;99.90;;;;;;6219231;23;20125;-87
2023/01/16 12:54:23;;;;;;;67.45;12.45;;;6.20;99.90;;;;;;6191928;23;20633;-87
2023/01/16 12:56:55;;;;;;;68.18;11.98;;;6.20;99.90;;;;;;6096688;23;20226;-87
2023/01/16 12:59:27;;;;;;;66.50;11.65;;;6.20;99.90;;;;;;6171271;23;20179;-86
2023/01/16 13:02:09;;;;;;;69.32;16.20;;;6.20;99.90;;;;;;6217295;23;20141;-87
2023/01/16 13:04:46;;;;;;;68.68;16.45;;;6.20;99.90;;;;;;6191256;23;20144;-86
2023/01/16 13:07:17;;;;;;;70.20;20.95;;;6.30;99.90;;;;;;6193332;23;20540;-86
2023/01/16 13:09:46;;;;;;;67.65;15.52;;;6.30;99.90;;;;;;6191904;23;20147;-86
2023/01/16 13:15:33;;;;;;;67.55;14.68;;;6.30;99.90;;;;;;6219011;23;20652;-87
2023/01/16 13:18:38;;;;;;;72.07;16.33;;;6.30;99.90;;;;;;6218841;23;20216;-86
2023/01/16 13:21:06;;;;;;;67.63;11.07;;;6.30;99.90;;;;;;6192050;23;20223;-86
2023/01/16 13:24:00;;;;;;;68.32;13.10;;;6.30;99.90;;;;;;6219320;23;20152;-86
2023/01/16 13:26:28;;;;;;;67.28;13.93;;;6.30;99.90;;;;;;6180918;23;20250;-86
2023/01/16 13:29:05;;;;;;;67.82;17.90;;;6.20;99.90;;;;;;6192733;23;20215;-86
2023/01/16 13:32:04;;;;;;;68.43;18.55;;;6.30;99.90;;;;;;6218627;23;20125;-86
2023/01/16 13:34:39;;;;;;;69.40;16.33;;;6.20;99.90;;;;;;6195980;23;20236;-86
2023/01/16 13:37:37;;;;;;;68.00;17.48;;;6.20;99.90;;;;;;6218771;23;20163;-87
2023/01/16 13:40:23;;;;;;;74.45;22.25;;;6.20;99.90;;;;;;6219224;23;20469;-86
2023/01/16 13:45:47;;;;;;;69.90;18.80;;;6.10;99.90;;;;;;6219462;23;20188;-86
2023/01/16 13:45:49;;;;;;;68.00;17.63;;;6.10;99.90;;;;;;6218461;23;20129;-87
2023/01/16 13:48:22;;;;;;;66.78;10.85;;;6.10;99.90;;;;;;6218602;23;20166;-87
2023/01/16 13:50:58;;;;;;;67.88;17.65;;;6.10;99.90;;;;;;6218998;23;20187;-87
2023/01/16 13:53:25;;;;;;;70.90;17.17;;;6.10;99.90;;;;;;6219284;23;20132;-86
2023/01/16 13:56:20;;;;;;;68.30;17.55;;;6.10;99.90;;;;;;6192012;23;20171;-86
2023/01/16 13:59:05;;;;;;;67.47;15.50;;;6.10;99.90;;;;;;6192653;23;20148;-87
2023/01/16 14:01:47;;;;;;;69.15;20.83;;;6.20;99.90;;;;;;6218759;23;20129;-88
2023/01/16 14:04:15;;;;;;;68.10;16.60;;;6.10;99.90;;;;;;6193287;23;20558;-86
2023/01/16 14:06:47;;;;;;;68.20;16.67;;;6.10;99.90;;;;;;6193959;23;20240;-88
2023/01/16 14:09:53;;;;;;;68.15;12.90;;;6.10;99.90;;;;;;6195130;23;20553;-88
2023/01/16 14:12:21;;;;;;;66.30;8.75;;;6.00;99.90;;;;;;6191778;23;20152;-89
2023/01/16 14:18:22;;;;;;;65.50;8.60;;;6.00;99.90;;;;;;6187469;23;20222;-89
2023/01/16 14:20:48;;;;;;;66.03;6.72;;;6.00;99.90;;;;;;6218064;23;20131;-89
2023/01/16 14:26:37;;;;;;;70.97;15.25;;;6.10;99.90;;;;;;6218276;23;20594;-88
2023/01/16 14:29:22;;;;;;;69.10;6.50;;;6.10;99.90;;;;;;6191822;23;20226;-88
2023/01/16 14:32:12;;;;;;;67.03;6.30;;;6.10;99.90;;;;;;6191823;23;20144;-88
2023/01/16 14:35:04;;;;;;;65.25;6.85;;;6.10;99.90;;;;;;6192100;23;20551;-88
2023/01/16 14:37:35;;;;;;;66.15;8.40;;;6.10;99.90;;;;;;6191802;23;20235;-88
2023/01/16 14:40:12;;;;;;;65.00;6.68;;;6.10;99.90;;;;;;6218233;23;20156;-88
2023/01/16 14:57:17;;;;;;;67.10;14.38;;;6.20;99.90;;;;;;6217973;23;20211;-88
2023/01/16 14:59:48;;;;;;;65.60;9.32;;;6.30;99.90;;;;;;6215841;23;20152;-88
2023/01/16 15:02:55;;;;;;;66.13;11.30;;;6.20;99.90;;;;;;6191310;23;20536;-88
2023/01/16 15:05:49;;;;;;;66.45;10.00;;;6.20;99.90;;;;;;6207218;23;20155;-87
2023/01/16 15:08:23;;;;;;;67.70;9.95;;;6.20;99.90;;;;;;6217806;23;20554;-88
2023/01/16 15:10:51;;;;;;;65.50;10.40;;;6.20;99.90;;;;;;6191868;23;20148;-88
2023/01/16 15:14:25;;;;;;;65.78;10.98;;;6.10;99.90;;;;;;6218212;23;20208;-88
2023/01/16 15:21:57;;;;;;;68.50;16.65;;;6.20;99.90;;;;;;6216922;23;20219;-88
2023/01/16 15:22:18;;;;;;;68.10;15.57;;;6.20;99.90;;;;;;6218401;23;20139;-88
2023/01/16 15:25:01;;;;;;;68.47;13.13;;;6.20;99.90;;;;;;6218007;23;20133;-88
2023/01/16 15:27:35;;;;;;;69.18;18.98;;;6.20;99.90;;;;;;6191236;23;20190;-88
2023/01/16 15:30:06;;;;;;;71.05;15.65;;;6.20;99.90;;;;;;6190819;23;20151;-88
2023/01/16 15:33:42;;;;;;;68.13;15.88;;;6.20;99.90;;;;;;6190940;23;20151;-88
2023/01/16 15:35:41;;;;;;;67.30;15.57;;;6.20;99.90;;;;;;6217981;23;20204;-88
2023/01/16 15:38:09;;;;;;;67.97;14.73;;;6.20;99.90;;;;;;6192099;23;20152;-88
2023/01/16 15:40:36;;;;;;;67.43;14.55;;;6.10;99.90;;;;;;6193079;23;20749;-88
2023/01/16 15:46:48;;;;;;;69.35;18.25;;;6.20;99.90;;;;;;6218840;23;20135;-89
2023/01/16 15:49:34;;;;;;;69.22;20.67;;;6.20;99.90;;;;;;6215635;23;20548;-88
2023/01/16 15:52:01;;;;;;;70.03;19.30;;;6.20;99.90;;;;;;6220837;23;20144;-88
2023/01/16 15:54:27;;;;;;;69.50;20.63;;;6.10;99.90;;;;;;6217763;23;20223;-87
2023/01/16 15:56:53;;;;;;;68.65;18.05;;;6.10;99.90;;;;;;6192603;23;20169;-88
2023/01/16 15:59:38;;;;;;;70.05;17.85;;;6.10;99.90;;;;;;6218706;23;20222;-88
2023/01/16 16:02:13;;;;;;;67.57;14.70;;;6.10;99.90;;;;;;6191553;23;20248;-88
2023/01/16 16:04:39;;;;;;;67.75;15.90;;;6.00;99.90;;;;;;6217657;23;20140;-88
2023/01/16 16:07:04;;;;;;;67.47;15.83;;;6.00;99.90;;;;;;6217371;23;20171;-88
2023/01/16 16:09:31;;;;;;;67.60;16.90;;;6.00;99.90;;;;;;6215929;23;20141;-87
2023/01/16 16:11:57;;;;;;;69.55;16.85;;;6.00;99.90;;;;;;6217679;23;20394;-88
2023/01/16 16:20:36;;;;;;;70.38;20.25;;;6.00;99.90;;;;;;6218623;23;20506;-87
2023/01/16 16:23:18;;;;;;;69.20;17.23;;;6.00;99.90;;;;;;6193350;23;20159;-88
2023/01/16 16:26:01;;;;;;;67.05;11.95;;;6.00;99.90;;;;;;6192625;23;20137;-87
2023/01/16 16:31:49;;;;;;;65.68;10.98;;;5.90;99.90;;;;;;6204806;23;20182;-88
2023/01/16 16:38:36;;;;;;;;;;;;;;;;;;;;;
2023/01/16 16:45:15;;;;;;;;;;;;;;;;;;;;;
2023/01/16 16:52:12;;;;;;;65.05;7.50;;;5.70;99.90;;;;;;6120937;23;20176;-90
2023/01/16 16:55:32;;;;;;;;;;;;;;;;;;;;;
2023/01/16 17:02:25;;;;;;;65.72;9.98;;;5.80;99.90;;;;;;6095355;23;20252;-89
2023/01/16 17:05:34;;;;;;;67.75;11.55;;;5.80;99.90;;;;;;6062778;23;20170;-89
2023/01/16 17:11:47;;;;;;;66.15;7.25;;;5.70;99.90;;;;;;5964505;24;20220;-89
2023/01/16 17:29:11;;;;;;;65.57;8.10;;;5.80;99.90;;;;;;6216696;23;20184;-89
2023/01/16 17:38:40;;;;;;;;;;;;;;;;;;;;;
2023/01/16 17:48:32;;;;;;;65.90;6.57;;;5.80;99.90;;;;;;6151632;23;20712;-88
2023/01/16 17:58:27;;;;;;;;;;;;;;;;;;;;;
2023/01/16 18:08:11;;;;;;;64.93;7.55;;;5.90;99.90;;;;;;5925230;24;20828;-87
2023/01/16 18:18:34;;;;;;;;;;;;;;;;;;;;;
2023/01/16 18:33:52;;;;;;;68.88;17.30;;;6.10;99.90;;;;;;6217616;23;20179;-89
2023/01/16 19:05:38;;;;;;;;;;;;;;;;;;;;;
2023/01/16 19:12:05;;;;;;;66.60;13.05;;;5.90;99.90;;;;;;6094933;23;20500;-88
2023/01/16 19:14:57;;;;;;;66.57;11.98;;;5.80;99.90;;;;;;6068311;23;20147;-88
2023/01/16 19:17:26;;;;;;;65.60;11.05;;;5.70;99.90;;;;;;6057737;23;20167;-89
2023/01/16 19:20:31;;;;;;;65.60;9.80;;;5.60;99.90;;;;;;6070797;23;20154;-89
2023/01/16 19:23:10;;;;;;;67.28;8.68;;;5.60;99.90;;;;;;6070699;23;20174;-89
2023/01/16 19:25:41;;;;;;;66.22;12.20;;;5.60;99.90;;;;;;6095291;23;20543;-89
2023/01/16 19:28:10;;;;;;;68.25;14.85;;;5.60;99.90;;;;;;6131612;23;20169;-89
2023/01/16 19:30:40;;;;;;;66.43;12.93;;;5.60;99.90;;;;;;6186397;23;20224;-89
2023/01/16 19:33:09;;;;;;;65.32;7.57;;;5.50;99.90;;;;;;6159083;23;20245;-89
2023/01/16 19:35:35;;;;;;;65.88;9.55;;;5.50;99.90;;;;;;6160856;23;20590;-89
2023/01/16 19:38:21;;;;;;;66.47;9.07;;;5.40;99.90;;;;;;6186317;23;20574;-90
2023/01/16 19:40:58;;;;;;;;;;;;;;;;;;;;;
2023/01/16 19:46:47;;;;;;;66.15;10.05;;;5.30;99.90;;;;;;6185857;23;20657;-90
2023/01/16 19:49:33;;;;;;;65.55;8.30;;;5.20;99.90;;;;;;6094186;23;20179;-89
2023/01/16 19:52:11;;;;;;;66.15;10.57;;;5.20;99.90;;;;;;6104518;23;20223;-89
2023/01/16 19:54:53;;;;;;;65.57;9.10;;;5.10;99.90;;;;;;6159504;23;20160;-88
2023/01/16 19:58:08;;;;;;;69.32;11.93;;;5.20;99.90;;;;;;6158814;23;20507;-89
2023/01/16 20:01:17;;;;;;;67.00;10.73;;;5.10;99.90;;;;;;6184413;23;20177;-89
2023/01/16 20:04:28;;;;;;;71.47;19.42;;;5.00;99.90;;;;;;6064002;23;20181;-89
2023/01/16 20:07:46;;;;;;;;;;;;;;;;;;;;;